Decoded Metar for KCCA ( in _UNIDENTIFIED) (IATA:N/A) | Meteo·Mobile Aviation Weather
aviador You're here:

KCCA Decoded Metar

in _UNIDENTIFIED
Report Time2018-08-22 01:15:00
UTC Time2018-08-22 01:32:09
Flight Rules vfr VFR
WindCalm
Visibility9999 m
Phenomena:N/A
Clouds:N/A
Expected CloudBase > 800 ft AGL from Temp-Dew spread
CeilingNone
Temp23°C (ISA +9)
Dew Point21°C (89% RH)
QNH1018 hPa
Density Alt1,726 ft
Elevation515 ft
Report Wrong Elevation
Raw Report
KCCA 220115Z AUTO 00000KT 7SM CLR 23/21 A3007 RMK AO2=

Extra information for KCCA:More info

Metar Taf Metar & Taf Last 4 Metars F.Rules Stats Wind Profile Meteogram Temp Stats Metar ALERT Operation Metar Decoded Social comments